Time;durP1;ratioP1;P1;durP2;ratioP2;P2;SDS_P1;SDS_P2;PMS_P1;PMS_P2;Temp;Humidity;BMP_temperature;BMP_pressure;BME280_temperature;BME280_humidity;BME280_pressure;Samples;Min_cycle;Max_cycle;Signal;HPM_P1;HPM_P2
2021/04/20 00:00:07;;;;;;;82.90;49.93;;;;;;;7.34;74.97;98699.27;114893;1199;103174;-77
2021/04/20 00:02:54;;;;;;;76.53;49.67;;;;;;;7.24;75.10;98697.25;114865;1199;103136;-75
2021/04/20 00:05:22;;;;;;;78.40;47.27;;;;;;;7.19;75.42;98688.75;114910;1199;103069;-77
2021/04/20 00:07:49;;;;;;;80.37;49.10;;;;;;;7.18;75.12;98687.05;114843;1199;103488;-77
2021/04/20 00:10:20;;;;;;;82.83;49.63;;;;;;;7.21;75.62;98694.80;114876;1199;103066;-77
2021/04/20 00:12:48;;;;;;;77.47;46.87;;;;;;;7.23;75.32;98692.90;115001;1199;103073;-77
2021/04/20 00:15:23;;;;;;;76.63;47.07;;;;;;;7.23;75.55;98686.75;114949;1199;103140;-78
2021/04/20 00:17:55;;;;;;;77.70;49.27;;;;;;;7.20;75.25;98676.36;114893;1200;103149;-77
2021/04/20 00:20:24;;;;;;;73.33;48.97;;;;;;;7.17;75.62;98682.72;114914;1200;103172;-79
2021/04/20 00:22:51;;;;;;;78.80;49.97;;;;;;;7.18;75.34;98678.25;115122;1200;103033;-79
2021/04/20 00:25:19;;;;;;;75.37;48.30;;;;;;;7.17;75.20;98679.20;114944;1200;103291;-78
2021/04/20 00:27:46;;;;;;;73.80;45.80;;;;;;;7.09;75.19;98682.36;114980;1200;103073;-77
2021/04/20 00:30:14;;;;;;;80.60;50.67;;;;;;;7.04;75.46;98676.52;114900;1200;103114;-78
2021/04/20 00:32:43;;;;;;;80.07;51.27;;;;;;;6.98;75.45;98683.05;115194;1199;103517;-78
2021/04/20 00:35:12;;;;;;;81.15;52.05;;;;;;;6.90;74.93;98686.20;115272;1200;103044;-78
2021/04/20 00:37:41;;;;;;;82.37;51.00;;;;;;;6.78;75.12;98679.04;115250;1199;103158;-77
2021/04/20 00:40:11;;;;;;;83.50;50.67;;;;;;;6.67;75.21;98677.91;115041;1199;103120;-77
2021/04/20 00:43:05;;;;;;;85.37;52.90;;;;;;;6.58;75.03;98675.84;115511;1199;103139;-77
2021/04/20 00:45:34;;;;;;;84.05;51.13;;;;;;;6.51;75.17;98674.55;114922;1199;103011;-74
2021/04/20 00:48:03;;;;;;;76.10;50.87;;;;;;;6.46;75.28;98671.34;114880;1199;103255;-74
2021/04/20 00:50:39;;;;;;;90.97;55.07;;;;;;;6.39;75.35;98666.44;114882;1200;103124;-74
2021/04/20 00:53:08;;;;;;;83.30;53.50;;;;;;;6.37;75.57;98663.03;114806;1197;103158;-73
2021/04/20 00:55:36;;;;;;;83.73;52.77;;;;;;;6.39;75.36;98662.92;114936;1199;103065;-74
2021/04/20 00:58:03;;;;;;;84.40;53.20;;;;;;;6.44;75.70;98668.78;115040;1200;103059;-74
2021/04/20 01:00:32;;;;;;;84.03;55.00;;;;;;;6.47;75.64;98668.59;114965;1199;103176;-73
2021/04/20 01:03:00;;;;;;;85.37;54.53;;;;;;;6.50;75.59;98668.41;115308;1200;103056;-74
2021/04/20 01:05:34;;;;;;;84.80;55.80;;;;;;;6.50;75.71;98668.41;114979;1199;103172;-76
2021/04/20 01:08:08;;;;;;;78.28;50.03;;;;;;;6.52;75.79;98658.59;114871;1200;103136;-75
2021/04/20 01:10:41;;;;;;;86.97;51.47;;;;;;;6.52;75.59;98660.39;114784;1199;103060;-74
2021/04/20 01:13:10;;;;;;;87.95;53.65;;;;;;;6.54;75.53;98659.34;115104;1199;103066;-76
2021/04/20 01:15:42;;;;;;;82.23;53.53;;;;;;;6.53;75.40;98651.49;115670;1200;103228;-76
2021/04/20 01:18:15;;;;;;;83.20;51.25;;;;;;;6.49;75.42;98648.20;115213;1200;103082;-77
2021/04/20 01:20:45;;;;;;;76.73;48.57;;;;;;;6.50;75.72;98649.07;115329;1199;103066;-75
2021/04/20 01:23:15;;;;;;;74.10;46.37;;;;;;;6.50;75.83;98644.63;115306;1199;103108;-77
2021/04/20 01:25:42;;;;;;;74.63;47.63;;;;;;;6.51;75.70;98646.31;115327;1198;103028;-75
2021/04/20 01:28:10;;;;;;;70.27;44.43;;;;;;;6.55;75.84;98652.25;115305;1199;103184;-77
2021/04/20 01:30:37;;;;;;;77.93;45.93;;;;;;;6.58;75.95;98641.48;115271;1200;103053;-76
2021/04/20 01:33:05;;;;;;;69.27;44.30;;;;;;;6.61;76.09;98645.75;115045;1199;103059;-75
2021/04/20 01:35:34;;;;;;;76.47;47.77;;;;;;;6.64;75.93;98646.39;115288;1198;103034;-76
2021/04/20 01:38:03;;;;;;;71.60;45.67;;;;;;;6.68;75.87;98649.70;115344;1198;102155;-75
2021/04/20 01:40:31;;;;;;;63.87;41.13;;;;;;;6.66;75.86;98651.59;115315;1200;103187;-76
2021/04/20 01:43:02;;;;;;;66.27;42.27;;;;;;;6.65;75.78;98655.19;114986;1200;103057;-76
2021/04/20 01:45:31;;;;;;;69.73;42.50;;;;;;;6.55;75.45;98650.47;115369;1198;103057;-76
2021/04/20 01:48:00;;;;;;;69.90;44.20;;;;;;;6.34;75.33;98654.44;115348;1200;103020;-73
2021/04/20 01:50:27;;;;;;;71.87;45.33;;;;;;;6.09;75.14;98648.90;115386;1199;103028;-74
2021/04/20 01:52:54;;;;;;;79.67;49.67;;;;;;;5.89;75.03;98652.72;115343;1199;103208;-74
2021/04/20 01:55:22;;;;;;;72.83;45.93;;;;;;;5.79;75.21;98651.56;115336;1198;103030;-75
2021/04/20 01:57:50;;;;;;;75.90;48.20;;;;;;;5.70;75.64;98647.69;115350;1198;103143;-73
2021/04/20 02:00:20;;;;;;;79.57;49.53;;;;;;;5.73;75.99;98647.48;115324;1199;103482;-75
2021/04/20 02:02:48;;;;;;;75.07;48.57;;;;;;;5.79;75.91;98646.28;115353;1200;103644;-74
2021/04/20 02:05:15;;;;;;;73.50;48.37;;;;;;;5.85;76.06;98647.69;115350;1199;103182;-75
2021/04/20 02:07:44;;;;;;;76.85;49.85;;;;;;;5.93;76.11;98653.36;115293;1199;103127;-75
2021/04/20 02:10:14;;;;;;;77.87;49.27;;;;;;;5.99;76.09;98652.14;115344;1200;103056;-76
2021/04/20 02:12:42;;;;;;;74.20;47.63;;;;;;;6.03;76.08;98653.69;114998;1199;103159;-76
2021/04/20 02:15:13;;;;;;;73.70;46.63;;;;;;;6.06;76.11;98656.14;115379;1199;103207;-77
2021/04/20 02:17:43;;;;;;;79.87;46.20;;;;;;;6.10;76.14;98653.23;115346;1200;103712;-75
2021/04/20 02:20:15;;;;;;;71.77;46.80;;;;;;;6.14;76.37;98655.66;115319;1199;103635;-76
2021/04/20 02:22:46;;;;;;;74.27;48.57;;;;;;;6.16;76.06;98652.00;115354;1200;103197;-75
2021/04/20 02:25:15;;;;;;;72.03;47.87;;;;;;;6.18;76.22;98654.53;115374;1198;103139;-75
2021/04/20 02:27:43;;;;;;;80.20;51.00;;;;;;;6.21;76.23;98660.50;115364;1199;103040;-77
2021/04/20 02:30:12;;;;;;;76.20;48.13;;;;;;;6.22;76.28;98651.63;115328;1199;103056;-75
2021/04/20 02:32:41;;;;;;;77.75;50.00;;;;;;;6.23;76.23;98658.61;114902;1198;102891;-75
2021/04/20 02:35:12;;;;;;;78.03;49.37;;;;;;;6.21;76.23;98657.86;115260;1198;103172;-75
2021/04/20 02:37:41;;;;;;;78.93;52.23;;;;;;;6.23;76.21;98653.33;116065;1199;103028;-78
2021/04/20 02:40:11;;;;;;;75.45;48.30;;;;;;;6.28;76.38;98654.84;114960;1200;103040;-77
2021/04/20 02:42:39;;;;;;;77.73;47.70;;;;;;;6.30;76.33;98661.72;115341;1200;103146;-77
2021/04/20 02:45:08;;;;;;;71.27;43.43;;;;;;;6.30;76.44;98656.43;115264;1199;103076;-77
2021/04/20 02:47:36;;;;;;;73.37;47.13;;;;;;;6.30;76.36;98647.67;115014;1200;103101;-78
2021/04/20 02:50:07;;;;;;;74.27;46.70;;;;;;;6.29;76.30;98657.38;114872;1200;103031;-77
2021/04/20 02:52:36;;;;;;;73.73;45.97;;;;;;;6.30;76.32;98663.52;115234;1199;103025;-78
2021/04/20 02:55:06;;;;;;;74.60;47.35;;;;;;;6.32;76.24;98658.96;115194;1199;103062;-77
2021/04/20 02:57:37;;;;;;;73.47;46.03;;;;;;;6.33;76.23;98658.88;115191;1198;103220;-77
2021/04/20 03:00:11;;;;;;;70.10;44.37;;;;;;;6.34;76.42;98662.36;115369;1199;103111;-79
2021/04/20 03:02:38;;;;;;;77.47;49.67;;;;;;;6.34;76.30;98663.23;115335;1200;103525;-78
2021/04/20 03:05:10;;;;;;;74.57;47.73;;;;;;;6.34;76.04;98662.36;115162;1199;103000;-77
2021/04/20 03:07:37;;;;;;;70.95;45.65;;;;;;;6.34;76.95;98657.94;115896;1200;102054;-78
2021/04/20 03:10:05;;;;;;;80.40;52.23;;;;;;;6.35;76.44;98657.00;114942;1200;103149;-78
2021/04/20 03:12:37;;;;;;;80.23;51.00;;;;;;;6.35;76.39;98657.00;115187;1198;103174;-78
2021/04/20 03:15:05;;;;;;;78.10;49.87;;;;;;;6.35;76.61;98654.36;115343;1199;103152;-78
2021/04/20 03:17:33;;;;;;;83.03;52.17;;;;;;;6.37;76.54;98660.39;115123;1199;103485;-78
2021/04/20 03:20:00;;;;;;;89.43;55.50;;;;;;;6.39;76.50;98655.87;115371;1199;103484;-77
2021/04/20 03:22:28;;;;;;;84.30;52.23;;;;;;;6.38;76.50;98661.23;115312;1200;103137;-77
2021/04/20 03:25:04;;;;;;;76.93;49.43;;;;;;;6.38;76.46;98666.52;115394;1198;103053;-77
2021/04/20 03:27:33;;;;;;;80.23;49.80;;;;;;;6.38;76.57;98670.02;115262;1199;103133;-78
2021/04/20 03:30:01;;;;;;;91.23;56.77;;;;;;;6.38;76.61;98664.73;114868;1198;103132;-76
2021/04/20 03:32:28;;;;;;;88.93;55.53;;;;;;;6.38;76.53;98667.38;114915;1200;103123;-77
2021/04/20 03:35:07;;;;;;;86.40;55.10;;;;;;;6.36;76.51;98661.34;115309;1200;103062;-76
2021/04/20 03:37:41;;;;;;;92.03;55.10;;;;;;;6.35;76.60;98664.05;115255;1200;103002;-76
2021/04/20 03:40:12;;;;;;;94.73;54.37;;;;;;;6.34;76.56;98667.64;114976;1200;103037;-76
2021/04/20 03:42:48;;;;;;;85.97;53.00;;;;;;;6.30;76.63;98667.00;115338;1199;103090;-77
2021/04/20 03:45:41;;;;;;;96.10;54.27;;;;;;;6.29;76.56;98662.66;115201;1199;103098;-78
2021/04/20 03:48:16;;;;;;;79.43;50.40;;;;;;;6.25;76.69;98659.37;115222;1199;103060;-75
2021/04/20 03:50:52;;;;;;;95.70;52.73;;;;;;;6.22;76.54;98664.84;115365;1199;103076;-77
2021/04/20 03:53:21;;;;;;;89.67;52.40;;;;;;;6.21;76.67;98664.91;115001;1200;103140;-75
2021/04/20 03:55:50;;;;;;;76.80;49.20;;;;;;;6.20;76.77;98663.22;114896;1200;103114;-76
2021/04/20 03:58:20;;;;;;;81.57;49.60;;;;;;;6.20;76.62;98661.44;115250;1199;103133;-78
2021/04/20 04:00:53;;;;;;;81.07;48.93;;;;;;;6.20;76.79;98664.08;115187;1198;103162;-77
2021/04/20 04:03:24;;;;;;;76.77;47.33;;;;;;;6.21;76.72;98659.63;115262;1200;103149;-75
2021/04/20 04:05:52;;;;;;;78.97;46.93;;;;;;;6.21;76.50;98663.14;114957;1199;103136;-75
2021/04/20 04:08:21;;;;;;;82.00;49.67;;;;;;;6.20;76.81;98653.52;114920;1199;103152;-75
2021/04/20 04:10:54;;;;;;;77.87;48.33;;;;;;;6.22;76.72;98662.20;114893;1199;103296;-73
2021/04/20 04:13:24;;;;;;;76.88;47.80;;;;;;;6.22;76.76;98664.84;114853;1200;103622;-74
2021/04/20 04:15:58;;;;;;;74.90;46.33;;;;;;;6.26;76.87;98668.13;114843;1199;103171;-75
2021/04/20 04:18:28;;;;;;;80.70;50.57;;;;;;;6.30;76.98;98667.00;115042;1200;103059;-74
2021/04/20 04:21:05;;;;;;;75.63;46.47;;;;;;;6.33;76.90;98666.81;115010;1199;103155;-74
2021/04/20 04:23:43;;;;;;;77.57;47.47;;;;;;;6.36;76.66;98668.40;115045;1200;103284;-72
2021/04/20 04:26:24;;;;;;;76.83;46.80;;;;;;;6.39;77.06;98665.56;115040;1200;103133;-76
2021/04/20 04:28:59;;;;;;;76.10;46.90;;;;;;;6.43;76.87;98660.97;114990;1199;103059;-73
2021/04/20 04:31:29;;;;;;;74.53;46.00;;;;;;;6.45;76.83;98673.13;114697;1200;103073;-76
2021/04/20 04:33:57;;;;;;;78.07;47.37;;;;;;;6.46;76.87;98674.81;115100;1199;103082;-75
2021/04/20 04:36:24;;;;;;;74.10;46.13;;;;;;;6.48;76.87;98674.73;115007;1200;103172;-75
2021/04/20 04:38:52;;;;;;;83.10;48.30;;;;;;;6.49;76.91;98677.27;115008;1199;103133;-72
2021/04/20 04:41:19;;;;;;;76.70;47.00;;;;;;;6.51;76.98;98677.20;114966;1199;103622;-73
2021/04/20 04:43:48;;;;;;;86.77;48.83;;;;;;;6.52;76.95;98676.25;114943;1199;103034;-73
2021/04/20 04:46:16;;;;;;;76.47;46.83;;;;;;;6.55;77.07;98668.10;115057;1199;103156;-73
2021/04/20 04:48:44;;;;;;;74.05;46.60;;;;;;;6.58;77.05;98669.72;114983;1200;103195;-72
2021/04/20 04:51:14;;;;;;;73.05;47.25;;;;;;;6.60;77.02;98670.48;114860;1199;103030;-73
2021/04/20 04:53:43;;;;;;;78.20;49.53;;;;;;;6.63;76.92;98678.21;114807;1199;103190;-72
2021/04/20 04:56:12;;;;;;;76.27;49.00;;;;;;;6.65;76.95;98676.33;114897;1200;103171;-72
2021/04/20 04:58:41;;;;;;;74.13;46.63;;;;;;;6.67;77.10;98671.80;115023;1200;103134;-74
2021/04/20 05:01:12;;;;;;;73.87;48.67;;;;;;;6.68;77.10;98682.25;115524;1199;103290;-74
2021/04/20 05:03:40;;;;;;;75.10;47.23;;;;;;;6.72;76.81;98676.78;114816;1199;103570;-70
2021/04/20 05:06:13;;;;;;;71.50;45.23;;;;;;;6.75;76.98;98674.77;114915;1200;103136;-71
2021/04/20 05:08:40;;;;;;;72.57;49.50;;;;;;;6.77;76.94;98675.53;115107;1200;103101;-72
2021/04/20 05:11:08;;;;;;;80.17;53.47;;;;;;;6.77;77.18;98675.53;114934;1198;103037;-72
2021/04/20 05:13:35;;;;;;;86.27;55.57;;;;;;;6.79;77.35;98678.09;115011;1199;103136;-70
2021/04/20 05:16:06;;;;;;;82.50;54.00;;;;;;;6.85;76.96;98683.83;114931;1200;103028;-73
2021/04/20 05:18:35;;;;;;;71.77;46.63;;;;;;;6.89;76.98;98675.70;114808;1199;103143;-71
2021/04/20 05:21:04;;;;;;;66.23;43.30;;;;;;;6.93;77.04;98678.04;114948;1199;103147;-71
2021/04/20 05:23:31;;;;;;;64.07;42.50;;;;;;;6.96;77.08;98677.02;115143;1200;103089;-70
2021/04/20 05:25:58;;;;;;;66.60;43.30;;;;;;;7.02;77.29;98679.27;114976;1200;104109;-71
2021/04/20 05:28:25;;;;;;;64.48;41.05;;;;;;;7.07;77.04;98686.89;115081;1200;103104;-71
2021/04/20 05:30:53;;;;;;;58.97;39.90;;;;;;;7.12;76.98;98682.16;115051;1199;103130;-70
2021/04/20 05:33:21;;;;;;;61.80;40.60;;;;;;;7.18;76.88;98681.77;115033;1199;103175;-71
2021/04/20 05:35:48;;;;;;;58.73;38.17;;;;;;;7.29;77.10;98686.35;115096;1198;103120;-69
2021/04/20 05:38:19;;;;;;;53.50;36.00;;;;;;;7.39;76.84;98687.45;114971;1200;103204;-71
2021/04/20 05:40:46;;;;;;;54.03;35.30;;;;;;;7.48;77.23;98687.80;115030;1199;103027;-71
2021/04/20 05:43:14;;;;;;;51.83;36.37;;;;;;;7.56;77.15;98691.63;115059;1199;103056;-71
2021/04/20 05:45:41;;;;;;;51.65;33.05;;;;;;;7.64;76.92;98685.81;114922;1200;103099;-70
2021/04/20 05:48:10;;;;;;;50.10;33.13;;;;;;;7.70;76.88;98684.58;115093;1200;102992;-69
2021/04/20 05:50:38;;;;;;;51.10;33.90;;;;;;;7.78;76.97;98689.34;115102;1200;103053;-72
2021/04/20 05:53:05;;;;;;;55.73;34.47;;;;;;;7.80;76.98;98687.45;115175;1200;103582;-71
2021/04/20 05:55:32;;;;;;;56.67;34.60;;;;;;;7.87;77.14;98686.91;114871;1200;103136;-71
2021/04/20 05:58:00;;;;;;;52.63;35.03;;;;;;;7.97;76.89;98692.42;114989;1200;102233;-69
2021/04/20 06:00:27;;;;;;;50.30;32.07;;;;;;;8.04;77.08;98691.06;114941;1199;103059;-70
2021/04/20 06:02:56;;;;;;;46.73;31.47;;;;;;;8.05;77.18;98694.57;114930;1200;103139;-70
2021/04/20 06:05:26;;;;;;;48.83;32.50;;;;;;;8.14;76.90;98690.44;114818;1200;103205;-72
2021/04/20 06:07:57;;;;;;;48.30;31.70;;;;;;;8.28;76.84;98682.39;115048;1198;103115;-72
2021/04/20 06:10:25;;;;;;;46.67;30.57;;;;;;;8.40;76.65;98682.47;114900;1199;103070;-70
2021/04/20 06:12:52;;;;;;;42.97;26.90;;;;;;;8.49;76.74;98684.52;114914;1200;103076;-71
2021/04/20 06:15:22;;;;;;;45.00;28.60;;;;;;;8.55;76.86;98686.73;115003;1199;103140;-71
2021/04/20 06:17:52;;;;;;;43.63;27.67;;;;;;;8.65;76.64;98684.27;115085;1199;103194;-71
2021/04/20 06:20:22;;;;;;;45.40;28.90;;;;;;;8.76;76.92;98684.36;115078;1198;103089;-71
2021/04/20 06:22:53;;;;;;;41.50;26.27;;;;;;;8.88;77.02;98689.75;114929;1199;103139;-71
2021/04/20 06:25:20;;;;;;;42.70;28.30;;;;;;;9.03;76.66;98685.14;115114;1200;103134;-73
2021/04/20 06:27:48;;;;;;;44.43;27.53;;;;;;;9.14;77.02;98687.88;114878;1199;103140;-71
2021/04/20 06:30:16;;;;;;;39.27;24.63;;;;;;;9.26;76.93;98685.25;115342;1199;103079;-74
2021/04/20 06:32:45;;;;;;;85.77;55.07;;;;;;;9.34;77.11;98683.75;114482;1199;103808;-75
2021/04/20 06:35:16;;;;;;;53.50;34.83;;;;;;;9.44;76.97;98678.60;114996;1200;103224;-73
2021/04/20 06:37:46;;;;;;;40.33;26.73;;;;;;;9.48;77.02;98681.86;114981;1200;103105;-74
2021/04/20 06:40:26;;;;;;;38.47;26.00;;;;;;;9.50;76.93;98683.46;114890;1199;103561;-73
2021/04/20 06:42:58;;;;;;;41.77;25.07;;;;;;;9.53;76.91;98682.37;114772;1200;102877;-75
2021/04/20 06:45:35;;;;;;;40.03;24.43;;;;;;;9.53;76.70;98683.23;114964;1200;103172;-73
2021/04/20 06:48:25;;;;;;;35.70;23.40;;;;;;;9.55;76.87;98685.76;114964;1199;103092;-72
2021/04/20 06:50:57;;;;;;;42.20;25.80;;;;;;;9.57;76.96;98689.15;115159;1199;103069;-72
2021/04/20 06:53:33;;;;;;;38.83;26.20;;;;;;;9.63;76.89;98691.35;114806;1199;103204;-73
2021/04/20 06:56:21;;;;;;;42.13;27.00;;;;;;;9.68;76.76;98689.20;114919;1200;103030;-73
2021/04/20 06:59:07;;;;;;;40.17;25.67;;;;;;;9.81;76.78;98683.80;114908;1198;103539;-72
2021/04/20 07:01:43;;;;;;;40.97;25.87;;;;;;;9.90;76.80;98692.88;114885;1199;103114;-72
2021/04/20 07:04:26;;;;;;;40.67;26.37;;;;;;;9.94;76.67;98696.16;114995;1199;103053;-71
2021/04/20 07:07:26;;;;;;;85.70;55.07;;;;;;;10.03;76.77;98691.95;114913;1199;103160;-71
2021/04/20 07:10:00;;;;;;;51.60;32.15;;;;;;;10.18;76.72;98684.60;115023;1200;103124;-72
2021/04/20 07:12:29;;;;;;;42.77;26.73;;;;;;;10.33;76.54;98677.23;114998;1200;103024;-73
2021/04/20 07:14:56;;;;;;;42.63;27.23;;;;;;;10.76;75.89;98676.55;114871;1200;103101;-73
2021/04/20 07:18:05;;;;;;;38.40;25.83;;;;;;;11.34;75.54;98679.92;114953;1199;103615;-71
2021/04/20 07:21:00;;;;;;;39.93;25.93;;;;;;;12.22;75.01;98683.30;114848;1199;103140;-73
2021/04/20 07:23:52;;;;;;;37.57;26.00;;;;;;;12.84;75.13;98679.77;114900;1198;103056;-73
2021/04/20 07:27:10;;;;;;;36.37;24.40;;;;;;;13.99;74.55;98670.30;115250;1200;102996;-72
2021/04/20 07:30:01;;;;;;;37.67;24.57;;;;;;;15.52;73.74;98675.39;115075;1200;103130;-71
2021/04/20 07:32:57;;;;;;;37.53;25.17;;;;;;;16.15;73.56;98671.74;115035;1199;103123;-72
2021/04/20 07:35:29;;;;;;;37.10;25.07;;;;;;;16.07;74.06;98677.05;115056;1200;103094;-71
2021/04/20 07:38:06;;;;;;;38.07;25.23;;;;;;;15.96;74.46;98678.14;115110;1198;102859;-71
2021/04/20 07:40:42;;;;;;;36.10;25.30;;;;;;;16.36;74.54;98675.88;115165;1200;103088;-71
2021/04/20 07:43:45;;;;;;;37.07;25.87;;;;;;;16.37;74.44;98681.11;115050;1200;103098;-71
2021/04/20 07:46:30;;;;;;;34.63;24.97;;;;;;;16.35;74.78;98674.20;115004;1199;103081;-73
2021/04/20 07:49:12;;;;;;;38.07;25.17;;;;;;;17.44;74.00;98670.95;114970;1200;103051;-73
2021/04/20 07:51:58;;;;;;;38.13;26.45;;;;;;;18.71;72.83;98663.27;114964;1199;103047;-73
2021/04/20 07:55:05;;;;;;;37.53;24.57;;;;;;;18.56;73.16;98667.68;114977;1198;103067;-70
2021/04/20 07:57:42;;;;;;;38.57;25.53;;;;;;;19.60;72.37;98661.27;114855;1199;103309;-67
2021/04/20 08:00:15;;;;;;;32.73;23.73;;;;;;;20.80;71.95;98665.06;114911;1199;103156;-67
2021/04/20 08:02:59;;;;;;;32.33;20.47;;;;;;;21.81;71.48;98660.78;114925;1199;103086;-70
2021/04/20 08:05:53;;;;;;;29.40;20.50;;;;;;;22.93;71.63;98654.64;115077;1200;103102;-72
2021/04/20 08:08:28;;;;;;;29.83;19.53;;;;;;;23.78;70.94;98658.85;114669;1199;103021;-70
2021/04/20 08:10:59;;;;;;;27.67;18.03;;;;;;;24.31;70.32;98654.48;114889;1200;103018;-71
2021/04/20 08:13:48;;;;;;;57.03;46.17;;;;;;;25.06;70.76;98654.08;114830;1198;103104;-71
2021/04/20 08:16:32;;;;;;;27.40;17.45;;;;;;;25.25;71.03;98656.93;115150;1199;103693;-71
2021/04/20 08:19:30;;;;;;;22.47;14.13;;;;;;;24.19;71.92;98660.55;115229;1199;103130;-73
2021/04/20 08:21:58;;;;;;;23.13;14.47;;;;;;;23.43;72.24;98659.02;115005;1198;103111;-71
2021/04/20 08:24:33;;;;;;;25.20;15.00;;;;;;;23.28;72.16;98651.87;114920;1200;103136;-71
2021/04/20 08:27:26;;;;;;;24.67;14.70;;;;;;;23.40;71.63;98653.99;115014;1199;103078;-72
2021/04/20 08:30:14;;;;;;;20.40;12.00;;;;;;;24.13;71.18;98657.84;115173;1198;103078;-70
2021/04/20 08:32:50;;;;;;;27.50;12.37;;;;;;;24.35;70.05;98647.58;115014;1200;103108;-72
2021/04/20 08:35:21;;;;;;;19.30;10.73;;;;;;;24.61;69.85;98651.28;114992;1199;103587;-70
2021/04/20 08:38:08;;;;;;;19.00;10.13;;;;;;;24.98;69.90;98654.31;115222;1198;103605;-72
2021/04/20 08:40:50;;;;;;;21.10;9.70;;;;;;;25.39;69.16;98652.23;115094;1200;103050;-73
2021/04/20 08:43:27;;;;;;;42.55;34.58;;;;;;;25.71;69.15;98652.27;115259;1200;103133;-73
2021/04/20 08:45:59;;;;;;;22.93;13.87;;;;;;;26.25;69.69;98649.95;115161;1200;103101;-71
2021/04/20 08:48:58;;;;;;;20.67;9.77;;;;;;;26.93;69.28;98646.51;115050;1198;103053;-75
2021/04/20 08:51:31;;;;;;;20.10;10.80;;;;;;;27.46;69.33;98650.44;115344;1199;103137;-75
2021/04/20 08:54:03;;;;;;;18.87;10.00;;;;;;;27.94;69.03;98649.48;115281;1200;103245;-82
2021/04/20 08:56:51;;;;;;;16.97;9.40;;;;;;;28.12;68.20;98645.03;115327;1200;103069;-77
2021/04/20 08:59:50;;;;;;;16.83;8.77;;;;;;;28.21;67.74;98648.23;115010;1199;103640;-75
2021/04/20 09:02:40;;;;;;;11.13;6.40;;;;;;;28.27;67.01;98644.55;115083;1200;103037;-75
2021/04/20 09:05:16;;;;;;;12.77;7.07;;;;;;;28.14;67.70;98640.16;115093;1199;103512;-76
2021/04/20 09:08:11;;;;;;;10.97;6.23;;;;;;;28.52;66.98;98624.33;115144;1200;103165;-72
2021/04/20 09:11:10;;;;;;;14.07;6.90;;;;;;;28.95;67.25;98639.47;114924;1199;103102;-66
2021/04/20 09:13:58;;;;;;;15.83;6.57;;;;;;;29.43;66.53;98633.83;115043;1199;103276;-73
2021/04/20 09:16:59;;;;;;;13.30;6.50;;;;;;;29.84;66.28;98622.75;115114;1199;103147;-72
2021/04/20 09:19:39;;;;;;;86.10;77.60;;;;;;;29.96;65.73;98617.17;114938;1199;103136;-73
2021/04/20 09:22:07;;;;;;;20.40;11.20;;;;;;;30.05;65.25;98629.42;115207;1199;103049;-72
2021/04/20 09:24:58;;;;;;;12.90;6.85;;;;;;;30.03;65.37;98622.52;115207;1199;103121;-72
2021/04/20 09:27:33;;;;;;;12.97;5.77;;;;;;;30.30;64.81;98623.50;115960;1199;103005;-75
2021/04/20 09:30:11;;;;;;;11.37;6.27;;;;;;;30.55;64.72;98618.62;115226;1200;103155;-74
2021/04/20 09:32:49;;;;;;;11.47;6.37;;;;;;;29.95;64.07;98621.84;115196;1199;103102;-74
2021/04/20 09:35:21;;;;;;;11.37;6.00;;;;;;;29.17;63.94;98619.64;115049;1199;103050;-71
2021/04/20 09:37:52;;;;;;;11.20;6.00;;;;;;;28.25;63.18;98621.27;115033;1200;103044;-71
2021/04/20 09:40:24;;;;;;;15.27;6.37;;;;;;;27.37;63.21;98610.87;114981;1199;103223;-71
2021/04/20 09:42:58;;;;;;;10.10;5.77;;;;;;;26.55;63.03;98610.22;115105;1198;102174;-73
2021/04/20 09:45:43;;;;;;;11.63;5.93;;;;;;;26.18;62.69;98619.19;115303;1199;103127;-72
2021/04/20 09:48:31;;;;;;;11.90;5.67;;;;;;;26.24;61.92;98599.22;115150;1199;103597;-71
2021/04/20 09:51:16;;;;;;;14.43;7.10;;;;;;;26.45;62.04;98606.12;114973;1200;103124;-68
2021/04/20 09:53:58;;;;;;;12.70;6.77;;;;;;;26.62;61.92;98602.80;114966;1200;103191;-67
2021/04/20 09:56:48;;;;;;;15.17;7.07;;;;;;;26.63;61.54;98593.55;114976;1200;103065;-75
2021/04/20 09:59:44;;;;;;;30.47;22.10;;;;;;;26.14;60.62;98598.89;115072;1198;103126;-71
2021/04/20 10:02:24;;;;;;;22.80;14.07;;;;;;;25.76;60.96;98592.52;115069;1198;103076;-71
2021/04/20 10:05:06;;;;;;;13.93;6.87;;;;;;;25.21;60.06;98585.75;115241;1199;103178;-70
2021/04/20 10:08:19;;;;;;;16.48;6.85;;;;;;;24.73;60.01;98580.77;114874;1199;103110;-73
2021/04/20 10:10:54;;;;;;;14.10;6.20;;;;;;;24.11;59.13;98583.88;114736;1203;103171;-71
2021/04/20 10:13:53;;;;;;;12.27;6.13;;;;;;;23.61;59.07;98580.55;114966;1199;103255;-70
2021/04/20 10:16:46;;;;;;;12.97;5.77;;;;;;;23.17;59.18;98580.03;115114;1200;103114;-70
2021/04/20 10:19:34;;;;;;;13.18;5.70;;;;;;;22.93;58.60;98576.00;115196;1199;103296;-74
2021/04/20 10:22:17;;;;;;;12.00;5.60;;;;;;;22.71;58.36;98575.30;114979;1200;103063;-71
2021/04/20 10:25:07;;;;;;;9.25;4.55;;;;;;;22.45;58.05;98577.69;115136;1200;103021;-72
2021/04/20 10:27:36;;;;;;;8.90;4.83;;;;;;;22.05;57.93;98585.55;115009;1200;103133;-73
2021/04/20 10:30:31;;;;;;;12.03;5.30;;;;;;;21.85;57.08;98582.70;114912;1199;103155;-72
2021/04/20 10:32:59;;;;;;;11.77;5.40;;;;;;;21.50;56.85;98582.60;114912;1200;103146;-71
2021/04/20 10:35:30;;;;;;;9.93;5.53;;;;;;;21.08;56.87;98587.83;115000;1199;103178;-72
2021/04/20 10:38:09;;;;;;;13.50;6.30;;;;;;;20.86;56.78;98592.37;115049;1199;103246;-71
2021/04/20 10:40:40;;;;;;;13.50;6.33;;;;;;;20.66;56.65;98592.91;114899;1200;103127;-71
2021/04/20 10:43:12;;;;;;;11.00;5.50;;;;;;;20.41;56.25;98598.63;114848;1199;103165;-71
2021/04/20 10:45:41;;;;;;;10.38;4.50;;;;;;;19.70;55.32;98607.09;114898;1199;103024;-70
2021/04/20 10:48:12;;;;;;;11.83;5.10;;;;;;;18.98;55.64;98618.03;114698;1199;103182;-71
2021/04/20 10:50:41;;;;;;;10.57;4.93;;;;;;;18.36;55.13;98605.31;115000;1200;103130;-72
2021/04/20 10:53:21;;;;;;;10.27;4.97;;;;;;;17.76;54.82;98605.56;114793;1198;103663;-71
2021/04/20 10:55:53;;;;;;;12.13;5.13;;;;;;;17.01;54.68;98620.81;114762;1200;103143;-71
2021/04/20 10:58:23;;;;;;;15.50;6.30;;;;;;;16.42;54.56;98623.42;114790;1200;103111;-71
2021/04/20 11:00:54;;;;;;;50.93;31.80;;;;;;;16.06;55.00;98617.20;115438;1200;103127;-71
2021/04/20 11:03:31;;;;;;;17.73;7.33;;;;;;;15.84;54.91;98625.71;115016;1200;103162;-68
2021/04/20 11:05:58;;;;;;;11.40;5.40;;;;;;;15.49;54.72;98628.28;114839;1199;103161;-70
2021/04/20 11:08:37;;;;;;;9.50;4.03;;;;;;;15.23;54.73;98629.05;115029;1199;103705;-69
2021/04/20 11:11:18;;;;;;;10.30;5.35;;;;;;;15.02;54.40;98632.88;114993;1199;103133;-70
2021/04/20 11:13:48;;;;;;;9.43;4.27;;;;;;;14.68;54.36;98628.09;115281;1199;103028;-71
2021/04/20 11:16:36;;;;;;;7.00;3.70;;;;;;;14.33;53.90;98629.66;115124;1199;103056;-69
2021/04/20 11:19:09;;;;;;;7.23;3.40;;;;;;;13.86;54.02;98617.13;114876;1200;103136;-69
2021/04/20 11:21:42;;;;;;;7.05;3.28;;;;;;;13.54;53.93;98615.64;115134;1200;103522;-68
2021/04/20 11:24:21;;;;;;;4.10;2.60;;;;;;;13.15;53.47;98615.61;114985;1199;103095;-70
2021/04/20 11:27:07;;;;;;;5.00;2.75;;;;;;;12.78;53.75;98607.27;115181;1199;103002;-68
2021/04/20 11:29:50;;;;;;;5.67;3.17;;;;;;;12.66;53.55;98616.36;115049;1199;103176;-70
2021/04/20 15:01:32;;;;;;;8.97;4.30;;;;;;;14.31;53.65;98508.58;115244;1199;103073;-72
2021/04/20 15:04:25;;;;;;;8.00;3.90;;;;;;;14.33;53.74;98506.59;114941;1196;103075;-70
2021/04/20 15:07:19;;;;;;;6.37;3.40;;;;;;;14.39;53.77;98513.20;114904;1203;103395;-71
2021/04/20 15:09:55;;;;;;;8.40;3.48;;;;;;;14.45;53.61;98509.93;114959;1203;103063;-71
2021/04/20 15:12:53;;;;;;;7.63;3.97;;;;;;;14.49;53.54;98513.13;114890;1202;103114;-71